Time;durP1;ratioP1;P1;durP2;ratioP2;P2;SDS_P1;SDS_P2;PMS_P1;PMS_P2;Temp;Humidity;BMP_temperature;BMP_pressure;BME280_temperature;BME280_humidity;BME280_pressure;Samples;Min_cycle;Max_cycle;Signal;HPM_P1;HPM_P2
2024/03/31 00:02:20;;;;;;;18.42;5.30;;;;;;;7.72;100.00;95707.41;5053507;28;20116;-63
2024/03/31 00:04:49;;;;;;;24.00;4.40;;;;;;;7.72;100.00;95704.72;5050906;28;20629;-63
2024/03/31 00:07:15;;;;;;;14.38;3.28;;;;;;;7.76;100.00;95709.31;5040121;28;20051;-64
2024/03/31 00:09:40;;;;;;;17.55;4.22;;;;;;;7.75;100.00;95710.41;5059242;28;20029;-63
2024/03/31 00:12:06;;;;;;;19.83;4.10;;;;;;;7.88;100.00;95703.59;5051988;28;21487;-63
2024/03/31 00:14:32;;;;;;;19.25;4.25;;;;;;;8.01;100.00;95704.91;5061003;28;20565;-63
2024/03/31 00:16:58;;;;;;;16.48;3.70;;;;;;;8.04;100.00;95695.44;5057189;28;20158;-63
2024/03/31 00:19:24;;;;;;;20.23;4.60;;;;;;;7.89;100.00;95696.31;5064261;28;20036;-63
2024/03/31 00:21:49;;;;;;;14.52;3.92;;;;;;;7.78;100.00;95693.66;5050104;28;20025;-63
2024/03/31 00:24:15;;;;;;;13.95;3.15;;;;;;;7.84;100.00;95694.44;5045974;28;20044;-63
2024/03/31 00:26:41;;;;;;;16.98;4.30;;;;;;;7.82;100.00;95688.53;5057561;28;20532;-63
2024/03/31 00:29:06;;;;;;;15.75;4.85;;;;;;;7.69;100.00;95687.22;5055307;28;20047;-63
2024/03/31 00:31:32;;;;;;;18.63;4.68;;;;;;;7.55;100.00;95692.38;5048321;28;20044;-63
2024/03/31 00:33:58;;;;;;;15.70;3.63;;;;;;;7.50;100.00;95690.53;5042142;28;20074;-64
2024/03/31 00:36:23;;;;;;;15.68;4.53;;;;;;;7.57;100.00;95695.63;5058840;28;20029;-64
2024/03/31 00:38:49;;;;;;;16.23;3.80;;;;;;;7.67;100.00;95695.59;5058857;28;20531;-64
2024/03/31 00:41:14;;;;;;;22.05;4.40;;;;;;;7.63;100.00;95697.22;5031882;28;20058;-63
2024/03/31 00:43:40;;;;;;;20.77;4.63;;;;;;;7.58;100.00;95702.63;5042978;28;20089;-63
2024/03/31 00:46:07;;;;;;;17.83;4.13;;;;;;;7.71;100.00;95706.63;5062055;28;20068;-64
2024/03/31 00:48:32;;;;;;;20.65;4.47;;;;;;;7.73;100.00;95707.16;5052697;28;20068;-63
2024/03/31 00:50:58;;;;;;;14.07;4.18;;;;;;;7.71;100.00;95712.03;5064272;28;20536;-63
2024/03/31 00:53:23;;;;;;;17.65;4.40;;;;;;;7.77;100.00;95705.53;5046909;28;20041;-64
2024/03/31 00:55:49;;;;;;;13.63;3.17;;;;;;;7.91;100.00;95710.31;5064291;28;20090;-63
2024/03/31 00:58:14;;;;;;;17.00;3.22;;;;;;;7.83;100.00;95717.09;5055484;28;20122;-63
2024/03/31 01:00:40;;;;;;;12.00;3.50;;;;;;;7.71;100.00;95716.59;5069787;28;20059;-63
2024/03/31 01:03:07;;;;;;;17.92;3.75;;;;;;;7.62;100.00;95724.41;5036497;28;20601;-62
2024/03/31 01:05:34;;;;;;;17.13;3.15;;;;;;;7.61;100.00;95734.41;5045868;28;20036;-63
2024/03/31 01:08:00;;;;;;;19.27;3.47;;;;;;;7.75;100.00;95723.03;5059963;28;20044;-62
2024/03/31 01:10:26;;;;;;;18.63;3.80;;;;;;;7.74;100.00;95733.00;5056454;28;20055;-64
2024/03/31 01:12:52;;;;;;;16.13;3.75;;;;;;;7.70;100.00;95742.72;5034392;28;20450;-62
2024/03/31 01:15:18;;;;;;;12.63;3.00;;;;;;;7.90;100.00;95743.75;5028013;28;20044;-62
2024/03/31 01:17:44;;;;;;;18.65;3.30;;;;;;;7.82;100.00;95742.44;5056736;28;20170;-62
2024/03/31 01:20:10;;;;;;;15.35;2.83;;;;;;;7.80;100.00;95741.88;5048146;28;20045;-62
2024/03/31 01:22:37;;;;;;;18.73;3.28;;;;;;;7.77;100.00;95734.34;5043716;28;20081;-63
2024/03/31 01:25:04;;;;;;;16.38;3.63;;;;;;;7.66;100.00;95734.38;5044799;28;20519;-63
2024/03/31 01:27:29;;;;;;;29.40;3.92;;;;;;;7.57;100.00;95735.22;5051334;28;20048;-62
2024/03/31 01:29:55;;;;;;;22.20;3.47;;;;;;;7.53;100.00;95722.28;5039476;28;20072;-63
2024/03/31 01:32:20;;;;;;;12.05;3.05;;;;;;;7.52;100.00;95728.75;5060518;28;20500;-63
2024/03/31 01:34:46;;;;;;;10.27;2.78;;;;;;;7.56;100.00;95729.03;5060446;28;20035;-64
2024/03/31 01:37:12;;;;;;;18.63;2.92;;;;;;;7.60;100.00;95735.50;5054101;28;20052;-64
2024/03/31 01:39:38;;;;;;;15.98;3.03;;;;;;;7.61;100.00;95729.00;5069697;28;20028;-63
2024/03/31 01:42:04;;;;;;;15.55;3.08;;;;;;;7.57;100.00;95727.94;5060752;28;20401;-63
2024/03/31 01:44:29;;;;;;;15.75;3.00;;;;;;;7.59;100.00;95724.97;5051139;28;20047;-64
2024/03/31 01:46:55;;;;;;;14.25;3.22;;;;;;;7.56;100.00;95726.34;5040869;28;20531;-63
2024/03/31 01:49:20;;;;;;;14.45;3.05;;;;;;;7.55;100.00;95712.06;5039091;28;20090;-63
2024/03/31 01:51:46;;;;;;;12.90;3.03;;;;;;;7.53;100.00;95705.34;5060963;28;20500;-64
2024/03/31 01:54:12;;;;;;;17.05;3.17;;;;;;;7.54;100.00;95691.59;5036619;28;20109;-64
2024/03/31 01:56:37;;;;;;;12.07;3.15;;;;;;;7.49;100.00;95683.50;5058777;28;20056;-63
2024/03/31 01:59:03;;;;;;;22.83;3.42;;;;;;;7.51;100.00;95689.44;5042074;28;20040;-64
2024/03/31 02:01:29;;;;;;;13.52;3.05;;;;;;;7.54;100.00;95691.59;5071754;28;20112;-64
2024/03/31 02:03:55;;;;;;;14.40;3.20;;;;;;;7.57;100.00;95684.84;5043532;28;20048;-63
2024/03/31 02:06:20;;;;;;;15.20;2.78;;;;;;;7.57;100.00;95682.16;5044225;28;20053;-63
2024/03/31 02:08:46;;;;;;;12.38;2.88;;;;;;;7.57;100.00;95679.47;5062467;28;20044;-63
2024/03/31 02:11:11;;;;;;;16.17;3.10;;;;;;;7.65;100.00;95678.09;5032729;28;20098;-63
2024/03/31 02:13:37;;;;;;;10.60;2.42;;;;;;;7.65;100.00;95670.00;5060398;28;20668;-63
2024/03/31 02:16:03;;;;;;;14.50;3.15;;;;;;;7.68;100.00;95681.03;5064833;28;20541;-63
2024/03/31 02:18:28;;;;;;;14.13;2.70;;;;;;;7.71;100.00;95673.50;5041328;28;20045;-63
2024/03/31 02:20:55;;;;;;;18.58;2.53;;;;;;;7.62;100.00;95671.34;5040526;28;20139;-64
2024/03/31 02:23:21;;;;;;;15.15;1.95;;;;;;;7.60;100.00;95656.56;5046835;28;20816;-63
2024/03/31 02:25:46;;;;;;;17.05;3.33;;;;;;;7.54;100.00;95661.97;5066411;28;20037;-62
2024/03/31 02:28:12;;;;;;;11.20;2.25;;;;;;;7.49;100.00;95647.72;5043181;28;20048;-64
2024/03/31 02:30:37;;;;;;;16.80;2.50;;;;;;;7.40;100.00;95645.59;5061911;28;20128;-64
2024/03/31 02:33:03;;;;;;;13.45;2.60;;;;;;;7.27;100.00;95648.84;5036715;28;20036;-63
2024/03/31 02:35:29;;;;;;;10.00;2.13;;;;;;;7.24;100.00;95641.31;5030713;28;20931;-63
2024/03/31 02:37:54;;;;;;;11.13;2.28;;;;;;;7.20;100.00;95637.56;5050723;28;20075;-63
2024/03/31 02:40:20;;;;;;;19.63;3.15;;;;;;;7.07;100.00;95652.41;5037648;28;20086;-64
2024/03/31 02:42:46;;;;;;;15.48;2.70;;;;;;;6.99;100.00;95656.44;5062934;28;20040;-64
2024/03/31 02:45:11;;;;;;;12.02;2.22;;;;;;;6.95;100.00;95648.09;5043842;28;20140;-63
2024/03/31 02:47:37;;;;;;;15.23;2.80;;;;;;;6.96;100.00;95651.59;5033467;28;20079;-63
2024/03/31 02:50:05;;;;;;;12.90;2.38;;;;;;;6.91;100.00;95657.78;5031313;28;20045;-63
2024/03/31 02:52:31;;;;;;;10.63;2.15;;;;;;;6.81;100.00;95657.81;5038528;28;21743;-63
2024/03/31 02:54:56;;;;;;;8.43;1.92;;;;;;;6.68;100.00;95649.22;5048124;28;20400;-63
2024/03/31 02:57:24;;;;;;;13.00;2.47;;;;;;;6.70;100.00;95671.25;5029238;28;20438;-63
2024/03/31 02:59:50;;;;;;;8.30;2.00;;;;;;;6.79;100.00;95684.16;5034639;28;20051;-64
2024/03/31 03:02:15;;;;;;;11.38;2.33;;;;;;;6.66;100.00;95666.69;5047953;28;20043;-64
2024/03/31 03:04:42;;;;;;;10.60;1.73;;;;;;;6.60;100.00;95655.13;5050806;28;20489;-65
2024/03/31 03:07:07;;;;;;;13.88;2.40;;;;;;;6.49;100.00;95657.00;5040763;28;20039;-62
2024/03/31 03:09:33;;;;;;;11.70;2.33;;;;;;;6.14;100.00;95656.69;5040726;28;20495;-64
2024/03/31 03:11:59;;;;;;;13.23;2.70;;;;;;;6.08;100.00;95660.44;5047000;28;20136;-64
2024/03/31 03:14:24;;;;;;;12.30;2.35;;;;;;;6.13;100.00;95668.50;5036558;28;20097;-63
2024/03/31 03:16:50;;;;;;;12.45;2.42;;;;;;;5.99;100.00;95668.16;5044218;28;20040;-63
2024/03/31 03:19:15;;;;;;;10.95;2.10;;;;;;;5.62;100.00;95645.75;5062964;28;20414;-64
2024/03/31 03:21:42;;;;;;;16.20;2.80;;;;;;;5.50;100.00;95639.78;5027408;28;20041;-63
2024/03/31 03:24:08;;;;;;;9.45;2.17;;;;;;;5.46;100.00;95648.38;5044292;28;20122;-62
2024/03/31 03:26:34;;;;;;;9.65;2.22;;;;;;;5.45;100.00;95662.03;5037969;28;20512;-63
2024/03/31 03:28:59;;;;;;;9.43;2.22;;;;;;;5.13;100.00;95660.28;5036965;28;20044;-62
2024/03/31 03:31:28;;;;;;;9.32;1.73;;;;;;;5.08;100.00;95667.22;5045523;28;20131;-64
2024/03/31 03:33:54;;;;;;;11.70;2.25;;;;;;;4.99;100.00;95668.78;5050882;28;20754;-63
2024/03/31 03:36:19;;;;;;;14.52;2.30;;;;;;;5.22;100.00;95690.91;5041945;28;20048;-62
2024/03/31 03:38:48;;;;;;;12.30;2.65;;;;;;;5.12;100.00;95697.03;5043502;28;20119;-64
2024/03/31 03:41:25;;;;;;;11.23;2.08;;;;;;;4.91;100.00;95671.94;5044516;28;20052;-64
2024/03/31 03:43:50;;;;;;;9.75;2.20;;;;;;;4.79;100.00;95658.72;5033883;28;20127;-63
2024/03/31 03:46:16;;;;;;;7.38;1.88;;;;;;;4.95;100.00;95702.56;5039553;28;20083;-64
2024/03/31 03:48:42;;;;;;;7.30;2.40;;;;;;;4.75;100.00;95697.84;5048055;28;20036;-63
2024/03/31 03:51:07;;;;;;;7.13;2.00;;;;;;;4.73;100.00;95684.69;5065889;28;20515;-63
2024/03/31 03:53:33;;;;;;;14.40;2.40;;;;;;;4.80;100.00;95711.28;5042972;28;20033;-62
2024/03/31 03:55:58;;;;;;;7.40;1.85;;;;;;;4.39;100.00;95684.94;5047028;28;20049;-63
2024/03/31 03:58:24;;;;;;;17.23;1.95;;;;;;;4.53;100.00;95704.88;5029653;28;20063;-62
2024/03/31 04:00:50;;;;;;;9.60;2.30;;;;;;;4.55;100.00;95696.59;5044787;28;20040;-63
2024/03/31 04:03:16;;;;;;;13.45;2.53;;;;;;;4.71;100.00;95712.81;5029490;28;20756;-62
2024/03/31 04:05:52;;;;;;;9.05;2.25;;;;;;;4.35;100.00;95670.44;5045220;28;20623;-63
2024/03/31 04:08:17;;;;;;;10.95;2.28;;;;;;;4.11;100.00;95649.28;5056365;28;20048;-63
2024/03/31 04:10:43;;;;;;;15.48;2.70;;;;;;;4.03;100.00;95670.09;5053608;28;20051;-63
2024/03/31 04:13:08;;;;;;;12.43;1.88;;;;;;;3.94;100.00;95665.47;5069509;28;20068;-62
2024/03/31 04:15:34;;;;;;;12.80;3.33;;;;;;;4.03;100.00;95688.84;5036891;28;20098;-63
2024/03/31 04:18:00;;;;;;;5.95;1.60;;;;;;;3.79;100.00;95688.31;5033698;28;20036;-63
2024/03/31 04:20:25;;;;;;;9.68;2.47;;;;;;;3.62;100.00;95685.72;5035787;28;20095;-63
2024/03/31 04:22:51;;;;;;;14.95;2.33;;;;;;;3.73;100.00;95697.38;5035371;28;20127;-64
2024/03/31 04:25:17;;;;;;;11.77;2.45;;;;;;;3.85;100.00;95713.28;5036586;28;20419;-63
2024/03/31 04:27:42;;;;;;;13.00;3.38;;;;;;;4.01;100.00;95730.34;5033647;28;20101;-64
2024/03/31 04:30:08;;;;;;;11.43;3.25;;;;;;;3.96;100.00;95723.06;5044254;28;20139;-63
2024/03/31 04:32:34;;;;;;;15.52;2.53;;;;;;;3.89;100.00;95714.41;5054321;28;20063;-63
2024/03/31 04:35:00;;;;;;;10.15;3.45;;;;;;;3.98;100.00;95726.31;5037736;28;20060;-64
2024/03/31 04:37:26;;;;;;;12.10;2.85;;;;;;;3.97;100.00;95727.38;5029692;28;20044;-63
2024/03/31 04:39:51;;;;;;;16.50;3.50;;;;;;;3.88;100.00;95731.53;5040680;28;20044;-63
2024/03/31 04:42:18;;;;;;;10.32;2.88;;;;;;;3.91;100.00;95733.72;5052732;28;20044;-64
2024/03/31 04:44:44;;;;;;;10.32;2.72;;;;;;;3.97;100.00;95737.25;5046670;28;20036;-63
2024/03/31 04:47:09;;;;;;;12.93;3.08;;;;;;;4.00;100.00;95737.59;5038964;28;20040;-63
2024/03/31 04:49:35;;;;;;;15.98;3.25;;;;;;;4.22;100.00;95733.25;5038798;28;20029;-63
2024/03/31 04:52:01;;;;;;;17.40;3.85;;;;;;;4.25;100.00;95751.50;5067008;28;20119;-63
2024/03/31 04:54:29;;;;;;;14.43;4.05;;;;;;;3.70;100.00;95714.75;5044138;28;20386;-63
2024/03/31 04:56:54;;;;;;;13.50;3.00;;;;;;;3.61;100.00;95694.81;5044347;28;20422;-64
2024/03/31 04:59:21;;;;;;;13.20;4.32;;;;;;;3.86;100.00;95717.59;5049743;28;20040;-63
2024/03/31 05:01:46;;;;;;;12.40;2.90;;;;;;;3.81;100.00;95712.16;5041446;28;20037;-63
2024/03/31 05:04:12;;;;;;;9.73;2.95;;;;;;;3.70;100.00;95717.41;5033804;28;20132;-63
2024/03/31 05:06:39;;;;;;;12.63;2.95;;;;;;;3.69;100.00;95705.06;5037504;28;20048;-63
2024/03/31 05:09:05;;;;;;;13.32;3.55;;;;;;;3.85;100.00;95716.78;5035220;28;20051;-63
2024/03/31 05:11:31;;;;;;;12.32;3.40;;;;;;;3.91;100.00;95723.03;5039272;28;20036;-63
2024/03/31 05:13:58;;;;;;;17.30;4.80;;;;;;;3.97;100.00;95722.00;5044963;28;20463;-62
2024/03/31 05:16:25;;;;;;;10.15;3.75;;;;;;;4.03;100.00;95726.34;5034640;28;20078;-62
2024/03/31 05:18:51;;;;;;;15.80;3.28;;;;;;;3.90;100.00;95705.31;5062413;28;20051;-63
2024/03/31 05:21:18;;;;;;;9.95;3.20;;;;;;;3.88;100.00;95712.81;5038377;28;20048;-62
2024/03/31 05:23:46;;;;;;;10.27;3.17;;;;;;;3.98;100.00;95726.31;5041568;28;20041;-63
2024/03/31 05:26:16;;;;;;;6.38;2.45;;;;;;;3.98;100.00;95712.91;5018534;28;20084;-62
2024/03/31 05:28:44;;;;;;;9.00;2.70;;;;;;;4.09;100.00;95707.69;5001088;28;20052;-62
2024/03/31 05:31:10;;;;;;;11.40;3.15;;;;;;;4.13;100.00;95704.22;5010875;28;20139;-62
2024/03/31 05:33:56;;;;;;;8.45;2.70;;;;;;;4.25;100.00;95696.06;5046265;28;20566;-64
2024/03/31 05:36:21;;;;;;;12.90;3.35;;;;;;;4.20;100.00;95687.16;5065729;28;20059;-63
2024/03/31 05:38:48;;;;;;;17.38;3.33;;;;;;;4.22;100.00;95677.81;5048754;28;20047;-64
2024/03/31 05:41:19;;;;;;;13.68;3.25;;;;;;;4.36;100.00;95685.44;5057399;28;20060;-63
2024/03/31 05:43:45;;;;;;;13.30;2.88;;;;;;;4.35;100.00;95673.09;5049906;28;20085;-64
2024/03/31 05:46:11;;;;;;;13.70;3.53;;;;;;;4.42;100.00;95673.69;5042494;28;20279;-63
2024/03/31 05:48:36;;;;;;;11.50;3.10;;;;;;;4.37;100.00;95661.06;5031607;28;20033;-64
2024/03/31 05:51:02;;;;;;;13.50;2.63;;;;;;;4.39;100.00;95658.94;5035531;28;20669;-63
2024/03/31 05:53:30;;;;;;;14.10;3.08;;;;;;;4.37;100.00;95654.88;5050523;28;20130;-63
2024/03/31 05:55:55;;;;;;;11.27;2.83;;;;;;;4.40;100.00;95651.72;5027782;28;20045;-64
2024/03/31 05:58:22;;;;;;;12.35;2.92;;;;;;;4.58;100.00;95663.09;5037598;28;20340;-63
2024/03/31 06:00:48;;;;;;;8.38;2.38;;;;;;;4.60;100.00;95647.59;5045602;28;20571;-63
2024/03/31 06:03:16;;;;;;;13.30;2.58;;;;;;;4.40;100.00;95627.59;5036611;28;20047;-64
2024/03/31 06:05:42;;;;;;;6.95;2.15;;;;;;;4.26;100.00;95619.16;5056187;28;20833;-63
2024/03/31 06:08:07;;;;;;;9.20;2.60;;;;;;;4.34;100.00;95625.91;5045933;28;20040;-64
2024/03/31 06:10:35;;;;;;;8.40;2.78;;;;;;;4.45;100.00;95634.88;5051777;28;21591;-63
2024/03/31 06:13:01;;;;;;;12.60;3.25;;;;;;;4.54;100.00;95626.09;5037779;28;20491;-64
2024/03/31 06:15:26;;;;;;;11.68;3.03;;;;;;;4.59;100.00;95625.31;5044844;28;20056;-63
2024/03/31 06:17:52;;;;;;;12.65;3.42;;;;;;;4.88;100.00;95640.25;5031370;28;20052;-63
2024/03/31 06:20:18;;;;;;;12.75;3.58;;;;;;;4.99;100.00;95623.19;5053902;28;20075;-64
2024/03/31 06:22:43;;;;;;;15.10;3.35;;;;;;;5.15;100.00;95605.28;5043137;28;20127;-63
2024/03/31 06:25:09;;;;;;;9.07;3.13;;;;;;;5.27;100.00;95578.22;5046324;28;20052;-64
2024/03/31 06:27:38;;;;;;;15.20;3.55;;;;;;;5.45;100.00;95571.59;5046032;28;20075;-64
2024/03/31 06:30:04;;;;;;;11.88;3.45;;;;;;;5.55;100.00;95562.78;5053709;28;20530;-64
2024/03/31 06:32:31;;;;;;;12.70;2.92;;;;;;;5.49;100.00;95579.13;5029825;28;20037;-64
2024/03/31 06:34:56;;;;;;;11.07;3.40;;;;;;;5.54;100.00;95588.00;5055492;28;20131;-63
2024/03/31 06:37:22;;;;;;;17.73;3.30;;;;;;;5.65;100.00;95590.72;5038771;28;20060;-64
2024/03/31 06:39:49;;;;;;;14.15;4.00;;;;;;;5.84;100.00;95599.91;5046484;28;20057;-64
2024/03/31 06:42:16;;;;;;;38.13;5.28;;;;;;;6.02;100.00;95605.84;5059462;28;20428;-64
2024/03/31 06:44:44;;;;;;;43.47;5.85;;;;;;;6.19;100.00;95596.75;5042696;28;20045;-64
2024/03/31 06:47:11;;;;;;;21.98;4.63;;;;;;;6.32;100.00;95601.59;5054664;28;20505;-63
2024/03/31 06:49:36;;;;;;;23.20;4.45;;;;;;;6.41;100.00;95604.56;5050585;28;20037;-64
2024/03/31 06:52:03;;;;;;;18.98;4.80;;;;;;;6.52;100.00;95605.34;5043930;28;20044;-64
2024/03/31 06:54:28;;;;;;;21.50;4.97;;;;;;;6.59;100.00;95602.38;5054491;28;20045;-64
2024/03/31 06:56:54;;;;;;;11.60;4.40;;;;;;;6.72;100.00;95596.50;5053627;28;20434;-64
2024/03/31 06:59:20;;;;;;;10.15;4.47;;;;;;;6.83;100.00;95589.22;5032226;28;20074;-64
2024/03/31 07:01:45;;;;;;;21.95;5.20;;;;;;;6.93;100.00;95582.97;5043933;28;20151;-64
2024/03/31 07:04:12;;;;;;;24.27;4.55;;;;;;;6.98;100.00;95577.59;5053543;28;20101;-63
2024/03/31 07:06:39;;;;;;;25.77;4.82;;;;;;;7.13;100.00;95576.75;5037677;28;20072;-64
2024/03/31 07:09:04;;;;;;;24.05;5.05;;;;;;;7.24;100.00;95576.72;5048171;28;20048;-64
2024/03/31 07:11:30;;;;;;;17.92;6.03;;;;;;;7.46;100.00;95570.16;5047836;28;20706;-63
2024/03/31 07:13:56;;;;;;;16.42;5.40;;;;;;;7.50;100.00;95557.75;5038166;28;20094;-63
2024/03/31 07:16:21;;;;;;;21.65;5.03;;;;;;;7.53;100.00;95555.31;5037544;28;20056;-64
2024/03/31 07:18:47;;;;;;;16.33;5.63;;;;;;;7.63;100.00;95562.53;5037565;28;20094;-64
2024/03/31 07:21:13;;;;;;;15.40;4.88;;;;;;;7.70;100.00;95550.66;5034533;28;20055;-63
2024/03/31 07:23:39;;;;;;;15.23;5.30;;;;;;;7.80;100.00;95546.00;5049236;28;20051;-64
2024/03/31 07:26:04;;;;;;;14.88;5.57;;;;;;;8.01;100.00;95550.44;5033915;28;20060;-63
2024/03/31 07:28:31;;;;;;;13.82;5.65;;;;;;;8.07;100.00;95557.41;5034000;28;20597;-63
2024/03/31 07:30:56;;;;;;;11.57;4.95;;;;;;;8.31;100.00;95552.13;5035303;28;20135;-64
2024/03/31 07:33:22;;;;;;;15.40;5.65;;;;;;;8.44;100.00;95556.03;5062648;28;20074;-64
2024/03/31 07:35:47;;;;;;;15.10;5.72;;;;;;;8.67;100.00;95556.41;5046130;28;20040;-65
2024/03/31 07:38:13;;;;;;;14.88;4.82;;;;;;;8.98;100.00;95563.41;5038172;28;20443;-65
2024/03/31 07:40:39;;;;;;;14.55;4.25;;;;;;;8.96;100.00;95560.97;5061037;28;20036;-64
2024/03/31 07:43:04;;;;;;;13.82;4.68;;;;;;;9.21;100.00;95577.19;5058128;28;20877;-63
2024/03/31 07:45:30;;;;;;;15.25;5.20;;;;;;;9.29;100.00;95563.03;5058225;28;20045;-65
2024/03/31 07:47:55;;;;;;;12.50;3.85;;;;;;;9.55;100.00;95561.94;5062934;28;20040;-63
2024/03/31 07:50:21;;;;;;;8.32;3.85;;;;;;;9.72;100.00;95556.03;5054500;28;20045;-63
2024/03/31 07:52:47;;;;;;;11.77;3.80;;;;;;;9.49;100.00;95551.19;5068174;28;20050;-64
2024/03/31 07:55:14;;;;;;;18.08;4.35;;;;;;;9.50;100.00;95544.69;5070054;28;20049;-64
2024/03/31 07:57:39;;;;;;;16.65;4.38;;;;;;;9.48;100.00;95538.78;5055030;28;20037;-64
2024/03/31 08:00:06;;;;;;;16.73;4.25;;;;;;;9.53;100.00;95546.00;5048383;28;20047;-63
2024/03/31 08:02:37;;;;;;;20.83;5.13;;;;;;;9.50;100.00;95528.50;5051140;28;20052;-66
2024/03/31 08:05:03;;;;;;;15.48;4.18;;;;;;;9.43;100.00;95513.75;5053990;28;20055;-65
2024/03/31 08:07:29;;;;;;;21.55;6.03;;;;;;;9.35;100.00;95512.47;5046739;28;21411;-66
2024/03/31 08:09:55;;;;;;;22.83;5.43;;;;;;;9.62;100.00;95513.75;5045036;28;20551;-66
2024/03/31 08:12:20;;;;;;;13.20;4.38;;;;;;;9.79;100.00;95523.22;5048068;28;20040;-66
2024/03/31 08:14:47;;;;;;;14.38;3.90;;;;;;;10.01;100.00;95530.75;5056231;28;20048;-65
2024/03/31 08:17:13;;;;;;;11.63;3.80;;;;;;;10.19;100.00;95539.94;5046177;28;20056;-65
2024/03/31 08:19:39;;;;;;;18.40;4.30;;;;;;;10.33;100.00;95531.88;5046942;28;20040;-66
2024/03/31 08:22:04;;;;;;;14.45;3.55;;;;;;;10.62;100.00;95530.09;5040351;28;20051;-66
2024/03/31 08:24:31;;;;;;;8.35;2.70;;;;;;;10.82;100.00;95533.50;5055695;28;20056;-65
2024/03/31 08:26:56;;;;;;;16.48;3.03;;;;;;;10.93;100.00;95529.53;5052516;28;20049;-66
2024/03/31 08:29:22;;;;;;;14.90;3.63;;;;;;;11.18;100.00;95530.13;5053613;28;20043;-65
2024/03/31 08:31:48;;;;;;;9.52;2.65;;;;;;;11.35;100.00;95517.88;5060313;28;20110;-66
2024/03/31 08:34:13;;;;;;;15.88;2.45;;;;;;;11.51;100.00;95521.88;5043208;28;20126;-65
2024/03/31 08:36:39;;;;;;;10.27;1.95;;;;;;;11.51;100.00;95521.88;5051108;28;20048;-67
2024/03/31 08:39:09;;;;;;;13.77;2.28;;;;;;;11.65;100.00;95524.56;5062917;28;20048;-66
2024/03/31 08:41:58;;;;;;;9.77;2.63;;;;;;;11.86;100.00;95528.75;5061103;28;20044;-67
2024/03/31 08:44:24;;;;;;;15.73;2.28;;;;;;;11.79;100.00;95519.09;5053763;28;20049;-66
2024/03/31 08:46:52;;;;;;;14.70;1.92;;;;;;;11.76;100.00;95522.41;5059657;28;20125;-66
2024/03/31 08:49:20;;;;;;;13.77;2.08;;;;;;;11.98;100.00;95504.59;5057445;28;20041;-66
2024/03/31 08:51:48;;;;;;;11.88;2.38;;;;;;;11.99;100.00;95506.19;5069029;28;20036;-65
2024/03/31 08:54:13;;;;;;;9.15;1.88;;;;;;;12.08;100.00;95509.78;5049763;28;20557;-66
2024/03/31 08:56:39;;;;;;;6.72;1.67;;;;;;;12.23;100.00;95496.97;5067311;28;20037;-66
2024/03/31 08:59:05;;;;;;;11.38;2.13;;;;;;;12.20;100.00;95492.97;5075058;28;20089;-65
2024/03/31 09:01:34;;;;;;;7.63;1.58;;;;;;;12.03;100.00;95495.53;5059739;28;20764;-66
2024/03/31 09:03:59;;;;;;;12.82;3.13;;;;;;;12.02;100.00;95494.72;5054720;28;20040;-66
2024/03/31 09:06:25;;;;;;;10.00;2.08;;;;;;;12.09;100.00;95491.63;5069362;28;20131;-67
2024/03/31 09:08:55;;;;;;;7.82;2.00;;;;;;;12.16;100.00;95485.75;5068830;28;20115;-66
2024/03/31 09:11:20;;;;;;;12.77;1.90;;;;;;;11.85;100.00;95484.53;5060588;28;20052;-62
2024/03/31 09:13:46;;;;;;;7.20;1.27;;;;;;;11.93;100.00;95477.56;5074532;28;20036;-64
2024/03/31 09:16:12;;;;;;;10.00;1.63;;;;;;;11.97;100.00;95468.53;5065076;28;20548;-65
2024/03/31 09:18:38;;;;;;;10.35;1.75;;;;;;;12.07;100.00;95462.09;5061383;28;20665;-64
2024/03/31 09:21:03;;;;;;;16.45;2.47;;;;;;;11.98;100.00;95469.34;5067579;28;20586;-65
2024/03/31 09:23:29;;;;;;;9.13;2.00;;;;;;;12.19;100.00;95468.84;5057477;28;20040;-63
2024/03/31 09:25:55;;;;;;;15.55;2.67;;;;;;;12.44;100.00;95463.88;5062792;28;20040;-65
2024/03/31 09:28:20;;;;;;;12.23;1.63;;;;;;;12.47;100.00;95472.22;5051955;28;20459;-64
2024/03/31 09:30:50;;;;;;;12.57;2.03;;;;;;;12.31;100.00;95466.38;5053340;28;20041;-65
2024/03/31 09:33:15;;;;;;;13.13;1.40;;;;;;;12.20;100.00;95467.75;5065217;28;20426;-64
2024/03/31 09:35:41;;;;;;;13.60;3.15;;;;;;;12.25;100.00;95453.25;5044397;28;20048;-65
2024/03/31 09:38:06;;;;;;;13.07;2.53;;;;;;;12.26;100.00;95452.94;5057337;28;20044;-68
2024/03/31 09:40:32;;;;;;;10.00;1.98;;;;;;;12.22;100.00;95449.25;5065309;28;20049;-70
2024/03/31 09:43:04;;;;;;;12.23;2.22;;;;;;;12.47;100.00;95449.69;5065097;28;20519;-66
2024/03/31 09:45:29;;;;;;;16.95;3.67;;;;;;;12.61;100.00;95447.69;5069462;28;20058;-62
2024/03/31 09:47:56;;;;;;;11.00;2.10;;;;;;;12.74;100.00;95437.03;5071477;28;20823;-64
2024/03/31 09:51:08;;;;;;;14.50;1.90;;;;;;;12.68;100.00;95427.44;5061849;28;20785;-67
2024/03/31 09:53:36;;;;;;;7.03;2.13;;;;;;;12.92;100.00;95416.19;5050228;28;20064;-64
2024/03/31 09:56:05;;;;;;;7.40;1.92;;;;;;;13.12;100.00;95427.59;5065309;28;20040;-65
2024/03/31 09:58:33;;;;;;;13.57;2.35;;;;;;;13.31;100.00;95432.72;5059852;28;20067;-66
2024/03/31 10:01:01;;;;;;;12.35;2.45;;;;;;;13.62;100.00;95445.41;5073438;28;20075;-64
2024/03/31 10:03:42;;;;;;;12.95;2.75;;;;;;;13.61;100.00;95432.94;5051290;28;20045;-64
2024/03/31 10:06:08;;;;;;;14.98;2.58;;;;;;;13.50;100.00;95418.84;5067228;28;20423;-64
2024/03/31 10:08:34;;;;;;;12.93;2.63;;;;;;;13.37;100.00;95420.56;5047923;28;20305;-64
2024/03/31 10:11:05;;;;;;;14.77;4.30;;;;;;;13.56;100.00;95424.94;5058839;28;20103;-64
2024/03/31 10:13:31;;;;;;;13.73;2.78;;;;;;;13.70;100.00;95429.41;5059795;28;20064;-66
2024/03/31 10:15:57;;;;;;;11.65;2.70;;;;;;;13.72;100.00;95440.78;5053810;28;20712;-65
2024/03/31 10:18:24;;;;;;;17.25;2.90;;;;;;;13.86;100.00;95437.91;5064692;28;20212;-66
2024/03/31 10:20:51;;;;;;;16.58;3.08;;;;;;;13.84;100.00;95432.78;5059280;28;20048;-64
2024/03/31 10:23:19;;;;;;;13.13;2.83;;;;;;;13.79;100.00;95427.50;5058132;28;20059;-64
2024/03/31 10:25:46;;;;;;;15.70;2.08;;;;;;;13.81;100.00;95427.97;5051145;28;20087;-66
2024/03/31 10:28:15;;;;;;;14.63;2.47;;;;;;;13.60;100.00;95423.16;5070868;28;20040;-67
2024/03/31 10:30:41;;;;;;;12.88;2.55;;;;;;;13.71;100.00;95422.88;5071283;28;20098;-64
2024/03/31 10:33:09;;;;;;;13.32;2.78;;;;;;;13.67;100.00;95416.47;5060331;28;20070;-64
2024/03/31 10:35:36;;;;;;;11.15;2.35;;;;;;;13.91;100.00;95407.81;5063430;28;20103;-66
2024/03/31 10:38:03;;;;;;;12.00;2.90;;;;;;;14.10;100.00;95404.72;5065636;28;20605;-65
2024/03/31 10:40:29;;;;;;;18.77;3.50;;;;;;;14.30;100.00;95397.78;5038166;28;20051;-66
2024/03/31 10:42:56;;;;;;;9.38;1.83;;;;;;;14.32;100.00;95402.91;5036032;28;20155;-67
2024/03/31 10:45:25;;;;;;;15.57;2.65;;;;;;;14.17;100.00;95396.06;5038475;28;20060;-65
2024/03/31 10:47:52;;;;;;;15.05;2.70;;;;;;;14.33;100.00;95392.84;5041005;28;20604;-65
2024/03/31 10:50:25;;;;;;;12.27;3.10;;;;;;;14.54;100.00;95401.06;5041315;28;20142;-60
2024/03/31 10:52:51;;;;;;;10.90;2.63;;;;;;;14.55;100.00;95391.78;5038552;28;20531;-66
2024/03/31 10:55:19;;;;;;;14.68;2.47;;;;;;;14.78;100.00;95395.06;5040987;28;20498;-63
2024/03/31 10:57:45;;;;;;;10.00;2.53;;;;;;;14.73;100.00;95395.22;5040634;28;20067;-67
2024/03/31 11:00:18;;;;;;;15.75;3.83;;;;;;;14.78;100.00;95388.84;5039015;28;20043;-66
2024/03/31 11:02:46;;;;;;;8.73;2.00;;;;;;;14.53;100.00;95385.88;5040043;28;20443;-66
2024/03/31 11:05:11;;;;;;;17.55;3.45;;;;;;;14.83;100.00;95385.91;5037525;28;20419;-66
2024/03/31 11:07:41;;;;;;;11.13;2.90;;;;;;;14.90;100.00;95388.13;5042488;28;20079;-64
2024/03/31 11:10:09;;;;;;;11.02;1.83;;;;;;;14.85;100.00;95388.31;5041094;28;20076;-66
2024/03/31 11:12:35;;;;;;;18.60;2.85;;;;;;;14.77;100.00;95379.84;5040429;28;20091;-65
2024/03/31 11:15:01;;;;;;;8.95;2.72;;;;;;;14.95;100.00;95390.66;5042469;28;20048;-66
2024/03/31 11:17:30;;;;;;;12.75;2.65;;;;;;;15.21;100.00;95379.59;5039181;28;21803;-66
2024/03/31 11:19:58;;;;;;;11.23;2.25;;;;;;;15.56;100.00;95383.19;5040710;28;20048;-66
2024/03/31 11:22:25;;;;;;;9.40;1.70;;;;;;;15.46;100.00;95368.84;5039968;28;21109;-63